sensor_id;sensor_type;location;lat;lon;timestamp;pressure;altitude;pressure_sealevel;temperature;humidity
37848;BME280;23688;33.130;-117.188;2024-02-14T00:00:50;99480.84;;;14.95;77.00
37848;BME280;23688;33.130;-117.188;2024-02-14T00:03:17;99481.50;;;14.85;72.77
37848;BME280;23688;33.130;-117.188;2024-02-14T00:05:43;99488.81;;;14.64;75.73
37848;BME280;23688;33.130;-117.188;2024-02-14T00:08:09;99492.44;;;14.37;83.00
37848;BME280;23688;33.130;-117.188;2024-02-14T00:10:42;99507.63;;;14.52;85.75
37848;BME280;23688;33.130;-117.188;2024-02-14T00:13:10;99507.88;;;14.28;85.76
37848;BME280;23688;33.130;-117.188;2024-02-14T00:15:37;99509.66;;;14.29;91.44
37848;BME280;23688;33.130;-117.188;2024-02-14T00:18:05;99510.84;;;14.42;95.03
37848;BME280;23688;33.130;-117.188;2024-02-14T00:20:31;99508.38;;;14.48;95.54
37848;BME280;23688;33.130;-117.188;2024-02-14T00:23:00;99515.78;;;14.31;96.09
37848;BME280;23688;33.130;-117.188;2024-02-14T00:25:27;99507.22;;;14.03;95.58
37848;BME280;23688;33.130;-117.188;2024-02-14T00:27:55;99516.56;;;13.95;96.89
37848;BME280;23688;33.130;-117.188;2024-02-14T00:30:21;99519.91;;;13.91;97.50
37848;BME280;23688;33.130;-117.188;2024-02-14T00:32:49;99524.00;;;13.81;98.92
37848;BME280;23688;33.130;-117.188;2024-02-14T00:35:16;99539.66;;;13.81;98.90
37848;BME280;23688;33.130;-117.188;2024-02-14T00:37:42;99527.91;;;13.97;99.90
37848;BME280;23688;33.130;-117.188;2024-02-14T00:40:09;99531.09;;;13.85;100.00
37848;BME280;23688;33.130;-117.188;2024-02-14T00:42:37;99533.56;;;13.82;100.00
37848;BME280;23688;33.130;-117.188;2024-02-14T00:45:03;99521.47;;;13.84;98.71
37848;BME280;23688;33.130;-117.188;2024-02-14T00:47:33;99550.16;;;13.83;100.00
37848;BME280;23688;33.130;-117.188;2024-02-14T00:50:02;99538.72;;;13.51;100.00
37848;BME280;23688;33.130;-117.188;2024-02-14T00:52:33;99546.16;;;13.37;100.00
37848;BME280;23688;33.130;-117.188;2024-02-14T00:54:59;99555.31;;;13.25;100.00
37848;BME280;23688;33.130;-117.188;2024-02-14T00:57:28;99545.16;;;13.06;100.00
37848;BME280;23688;33.130;-117.188;2024-02-14T00:59:55;99543.00;;;12.93;100.00
37848;BME280;23688;33.130;-117.188;2024-02-14T01:02:22;99538.66;;;12.93;100.00
37848;BME280;23688;33.130;-117.188;2024-02-14T01:04:49;99542.53;;;12.79;100.00
37848;BME280;23688;33.130;-117.188;2024-02-14T01:07:15;99543.09;;;12.70;100.00
37848;BME280;23688;33.130;-117.188;2024-02-14T01:09:41;99536.34;;;12.75;100.00
37848;BME280;23688;33.130;-117.188;2024-02-14T01:12:08;99546.97;;;12.81;100.00
37848;BME280;23688;33.130;-117.188;2024-02-14T01:14:37;99555.34;;;12.73;100.00
37848;BME280;23688;33.130;-117.188;2024-02-14T01:17:03;99543.13;;;12.45;100.00
37848;BME280;23688;33.130;-117.188;2024-02-14T01:19:34;99558.03;;;12.49;100.00
37848;BME280;23688;33.130;-117.188;2024-02-14T01:22:01;99545.28;;;12.32;100.00
37848;BME280;23688;33.130;-117.188;2024-02-14T01:24:28;99564.13;;;12.51;100.00
37848;BME280;23688;33.130;-117.188;2024-02-14T01:26:56;99567.34;;;12.43;100.00
37848;BME280;23688;33.130;-117.188;2024-02-14T01:29:22;99578.41;;;12.36;100.00
37848;BME280;23688;33.130;-117.188;2024-02-14T01:31:49;99572.81;;;12.26;100.00
37848;BME280;23688;33.130;-117.188;2024-02-14T01:34:16;99570.22;;;12.26;100.00
37848;BME280;23688;33.130;-117.188;2024-02-14T01:36:42;99584.53;;;12.38;100.00
37848;BME280;23688;33.130;-117.188;2024-02-14T01:39:08;99583.72;;;12.39;100.00
37848;BME280;23688;33.130;-117.188;2024-02-14T01:41:37;99578.97;;;12.53;100.00
37848;BME280;23688;33.130;-117.188;2024-02-14T01:44:04;99571.75;;;12.70;100.00
37848;BME280;23688;33.130;-117.188;2024-02-14T01:46:31;99572.13;;;12.81;100.00
37848;BME280;23688;33.130;-117.188;2024-02-14T01:49:00;99567.06;;;12.85;100.00
37848;BME280;23688;33.130;-117.188;2024-02-14T01:51:26;99577.47;;;13.11;100.00
37848;BME280;23688;33.130;-117.188;2024-02-14T01:53:54;99567.38;;;13.22;100.00
37848;BME280;23688;33.130;-117.188;2024-02-14T01:56:21;99588.81;;;13.39;100.00
37848;BME280;23688;33.130;-117.188;2024-02-14T01:58:48;99579.41;;;13.44;100.00
37848;BME280;23688;33.130;-117.188;2024-02-14T02:01:15;99589.19;;;13.51;100.00
37848;BME280;23688;33.130;-117.188;2024-02-14T02:03:43;99588.28;;;13.51;100.00
37848;BME280;23688;33.130;-117.188;2024-02-14T02:06:10;99595.22;;;13.50;100.00
37848;BME280;23688;33.130;-117.188;2024-02-14T02:08:36;99578.50;;;13.43;100.00
37848;BME280;23688;33.130;-117.188;2024-02-14T02:11:06;99598.63;;;13.47;100.00
37848;BME280;23688;33.130;-117.188;2024-02-14T02:13:35;99610.78;;;13.47;100.00
37848;BME280;23688;33.130;-117.188;2024-02-14T02:16:05;99607.06;;;13.39;100.00
37848;BME280;23688;33.130;-117.188;2024-02-14T02:18:32;99614.84;;;13.37;100.00
37848;BME280;23688;33.130;-117.188;2024-02-14T02:20:58;99625.44;;;13.43;100.00
37848;BME280;23688;33.130;-117.188;2024-02-14T02:23:25;99622.75;;;13.40;100.00
37848;BME280;23688;33.130;-117.188;2024-02-14T02:25:51;99626.16;;;13.38;100.00
37848;BME280;23688;33.130;-117.188;2024-02-14T02:28:18;99635.59;;;13.34;100.00
37848;BME280;23688;33.130;-117.188;2024-02-14T02:30:44;99619.47;;;13.20;100.00
37848;BME280;23688;33.130;-117.188;2024-02-14T02:33:12;99635.28;;;13.25;100.00
37848;BME280;23688;33.130;-117.188;2024-02-14T02:35:41;99625.25;;;13.12;100.00
37848;BME280;23688;33.130;-117.188;2024-02-14T02:38:11;99640.97;;;13.13;100.00
37848;BME280;23688;33.130;-117.188;2024-02-14T02:40:38;99638.16;;;13.07;100.00
37848;BME280;23688;33.130;-117.188;2024-02-14T02:43:04;99641.59;;;13.06;100.00
37848;BME280;23688;33.130;-117.188;2024-02-14T02:45:31;99636.13;;;12.98;100.00
37848;BME280;23688;33.130;-117.188;2024-02-14T02:47:58;99648.31;;;12.99;100.00
37848;BME280;23688;33.130;-117.188;2024-02-14T02:50:27;99638.38;;;12.88;100.00
37848;BME280;23688;33.130;-117.188;2024-02-14T02:52:53;99642.66;;;12.87;100.00
37848;BME280;23688;33.130;-117.188;2024-02-14T02:55:20;99655.06;;;12.94;100.00
37848;BME280;23688;33.130;-117.188;2024-02-14T02:57:47;99641.69;;;12.83;100.00
37848;BME280;23688;33.130;-117.188;2024-02-14T03:00:13;99648.66;;;12.84;100.00
37848;BME280;23688;33.130;-117.188;2024-02-14T03:02:41;99655.75;;;12.89;100.00
37848;BME280;23688;33.130;-117.188;2024-02-14T03:05:13;99656.53;;;12.86;100.00
37848;BME280;23688;33.130;-117.188;2024-02-14T03:07:49;99660.91;;;12.87;100.00
37848;BME280;23688;33.130;-117.188;2024-02-14T03:10:17;99657.22;;;12.80;100.00
37848;BME280;23688;33.130;-117.188;2024-02-14T03:12:49;99661.50;;;12.78;100.00
37848;BME280;23688;33.130;-117.188;2024-02-14T03:15:16;99659.44;;;12.70;100.00
37848;BME280;23688;33.130;-117.188;2024-02-14T03:17:43;99661.94;;;12.67;100.00
37848;BME280;23688;33.130;-117.188;2024-02-14T03:20:10;99672.28;;;12.65;100.00
37848;BME280;23688;33.130;-117.188;2024-02-14T03:22:39;99677.41;;;12.62;100.00
37848;BME280;23688;33.130;-117.188;2024-02-14T03:25:18;99679.13;;;12.61;100.00
37848;BME280;23688;33.130;-117.188;2024-02-14T03:27:45;99677.19;;;12.56;100.00
37848;BME280;23688;33.130;-117.188;2024-02-14T03:30:14;99681.66;;;12.60;100.00
37848;BME280;23688;33.130;-117.188;2024-02-14T03:32:43;99678.97;;;12.57;100.00
37848;BME280;23688;33.130;-117.188;2024-02-14T03:35:09;99670.09;;;12.52;100.00
37848;BME280;23688;33.130;-117.188;2024-02-14T03:37:37;99687.47;;;12.53;100.00
37848;BME280;23688;33.130;-117.188;2024-02-14T03:40:05;99683.47;;;12.38;100.00
37848;BME280;23688;33.130;-117.188;2024-02-14T03:42:34;99686.75;;;12.33;100.00
37848;BME280;23688;33.130;-117.188;2024-02-14T03:45:00;99690.97;;;12.29;100.00
37848;BME280;23688;33.130;-117.188;2024-02-14T03:47:32;99705.06;;;12.34;100.00
37848;BME280;23688;33.130;-117.188;2024-02-14T03:49:59;99695.34;;;12.30;100.00
37848;BME280;23688;33.130;-117.188;2024-02-14T03:52:25;99706.78;;;12.34;100.00
37848;BME280;23688;33.130;-117.188;2024-02-14T03:54:52;99705.81;;;12.32;100.00
37848;BME280;23688;33.130;-117.188;2024-02-14T03:57:19;99687.19;;;12.21;100.00
37848;BME280;23688;33.130;-117.188;2024-02-14T03:59:46;99721.72;;;12.39;100.00
37848;BME280;23688;33.130;-117.188;2024-02-14T04:02:12;99719.22;;;12.42;100.00
37848;BME280;23688;33.130;-117.188;2024-02-14T04:04:42;99719.28;;;12.44;100.00
37848;BME280;23688;33.130;-117.188;2024-02-14T04:07:09;99725.38;;;12.45;100.00
37848;BME280;23688;33.130;-117.188;2024-02-14T04:09:35;99722.88;;;12.48;100.00
37848;BME280;23688;33.130;-117.188;2024-02-14T04:12:02;99736.00;;;12.51;100.00
37848;BME280;23688;33.130;-117.188;2024-02-14T04:14:29;99737.81;;;12.52;100.00
37848;BME280;23688;33.130;-117.188;2024-02-14T04:16:55;99732.59;;;12.52;100.00
37848;BME280;23688;33.130;-117.188;2024-02-14T04:19:21;99723.59;;;12.43;100.00
37848;BME280;23688;33.130;-117.188;2024-02-14T04:21:48;99738.69;;;12.52;100.00
37848;BME280;23688;33.130;-117.188;2024-02-14T04:24:14;99733.28;;;12.46;100.00
37848;BME280;23688;33.130;-117.188;2024-02-14T04:26:41;99750.59;;;12.46;100.00
37848;BME280;23688;33.130;-117.188;2024-02-14T04:29:10;99745.16;;;12.39;100.00
37848;BME280;23688;33.130;-117.188;2024-02-14T04:31:36;99745.88;;;12.35;100.00
37848;BME280;23688;33.130;-117.188;2024-02-14T04:34:03;99739.50;;;12.27;100.00
37848;BME280;23688;33.130;-117.188;2024-02-14T04:36:30;99752.63;;;12.30;100.00
37848;BME280;23688;33.130;-117.188;2024-02-14T04:38:57;99749.66;;;12.21;100.00
37848;BME280;23688;33.130;-117.188;2024-02-14T04:41:24;99757.72;;;12.27;100.00
37848;BME280;23688;33.130;-117.188;2024-02-14T04:43:50;99766.47;;;12.29;100.00
37848;BME280;23688;33.130;-117.188;2024-02-14T04:46:16;99754.16;;;12.25;100.00
37848;BME280;23688;33.130;-117.188;2024-02-14T04:48:43;99752.53;;;12.29;100.00
37848;BME280;23688;33.130;-117.188;2024-02-14T04:51:09;99756.69;;;12.24;100.00
37848;BME280;23688;33.130;-117.188;2024-02-14T04:53:36;99751.28;;;12.19;100.00
37848;BME280;23688;33.130;-117.188;2024-02-14T04:56:03;99758.19;;;12.17;100.00
37848;BME280;23688;33.130;-117.188;2024-02-14T04:58:31;99762.25;;;12.10;100.00
37848;BME280;23688;33.130;-117.188;2024-02-14T05:00:59;99757.53;;;12.00;100.00
37848;BME280;23688;33.130;-117.188;2024-02-14T05:03:27;99763.78;;;12.05;100.00
37848;BME280;23688;33.130;-117.188;2024-02-14T05:05:53;99750.47;;;11.97;100.00
37848;BME280;23688;33.130;-117.188;2024-02-14T05:08:19;99753.91;;;11.96;100.00
37848;BME280;23688;33.130;-117.188;2024-02-14T05:10:46;99767.84;;;11.98;100.00
37848;BME280;23688;33.130;-117.188;2024-02-14T05:13:12;99769.47;;;11.95;100.00
37848;BME280;23688;33.130;-117.188;2024-02-14T05:15:42;99765.94;;;11.94;100.00
37848;BME280;23688;33.130;-117.188;2024-02-14T05:18:08;99763.78;;;11.84;100.00
37848;BME280;23688;33.130;-117.188;2024-02-14T05:20:35;99783.78;;;11.85;100.00
37848;BME280;23688;33.130;-117.188;2024-02-14T05:23:01;99778.44;;;11.82;100.00
37848;BME280;23688;33.130;-117.188;2024-02-14T05:25:28;99788.59;;;11.76;100.00
37848;BME280;23688;33.130;-117.188;2024-02-14T05:27:57;99786.56;;;11.69;100.00
37848;BME280;23688;33.130;-117.188;2024-02-14T05:30:23;99795.06;;;11.65;100.00
37848;BME280;23688;33.130;-117.188;2024-02-14T05:32:50;99770.69;;;11.42;100.00
37848;BME280;23688;33.130;-117.188;2024-02-14T05:35:18;99779.31;;;11.41;100.00
37848;BME280;23688;33.130;-117.188;2024-02-14T05:37:45;99790.53;;;11.40;100.00
37848;BME280;23688;33.130;-117.188;2024-02-14T05:40:15;99784.75;;;11.26;100.00
37848;BME280;23688;33.130;-117.188;2024-02-14T05:42:41;99785.31;;;11.19;100.00
37848;BME280;23688;33.130;-117.188;2024-02-14T05:45:09;99786.88;;;11.15;100.00
37848;BME280;23688;33.130;-117.188;2024-02-14T05:47:36;99800.88;;;11.19;100.00
37848;BME280;23688;33.130;-117.188;2024-02-14T05:50:06;99802.59;;;11.18;100.00
37848;BME280;23688;33.130;-117.188;2024-02-14T05:52:34;99804.25;;;11.16;100.00
37848;BME280;23688;33.130;-117.188;2024-02-14T05:55:01;99806.63;;;11.11;100.00
37848;BME280;23688;33.130;-117.188;2024-02-14T05:57:28;99797.06;;;11.10;100.00
37848;BME280;23688;33.130;-117.188;2024-02-14T05:59:54;99806.63;;;11.11;100.00
37848;BME280;23688;33.130;-117.188;2024-02-14T06:02:20;99793.28;;;11.02;100.00
37848;BME280;23688;33.130;-117.188;2024-02-14T06:04:49;99801.19;;;11.05;100.00
37848;BME280;23688;33.130;-117.188;2024-02-14T06:07:15;99804.75;;;11.07;100.00
37848;BME280;23688;33.130;-117.188;2024-02-14T06:09:41;99794.19;;;11.04;100.00
37848;BME280;23688;33.130;-117.188;2024-02-14T06:12:10;99796.00;;;11.05;100.00
37848;BME280;23688;33.130;-117.188;2024-02-14T06:14:37;99803.84;;;11.07;100.00
37848;BME280;23688;33.130;-117.188;2024-02-14T06:17:05;99804.59;;;11.04;100.00
37848;BME280;23688;33.130;-117.188;2024-02-14T06:19:31;99802.69;;;11.00;100.00
37848;BME280;23688;33.130;-117.188;2024-02-14T06:21:59;99806.94;;;10.98;100.00
37848;BME280;23688;33.130;-117.188;2024-02-14T06:24:26;99804.97;;;10.92;100.00
37848;BME280;23688;33.130;-117.188;2024-02-14T06:26:53;99798.59;;;10.86;100.00
37848;BME280;23688;33.130;-117.188;2024-02-14T06:29:19;99800.09;;;10.81;100.00
37848;BME280;23688;33.130;-117.188;2024-02-14T06:31:46;99801.59;;;10.76;100.00
37848;BME280;23688;33.130;-117.188;2024-02-14T06:34:13;99800.84;;;10.78;100.00
37848;BME280;23688;33.130;-117.188;2024-02-14T06:36:39;99799.00;;;10.76;100.00
37848;BME280;23688;33.130;-117.188;2024-02-14T06:39:06;99785.50;;;10.65;100.00
37848;BME280;23688;33.130;-117.188;2024-02-14T06:41:34;99791.75;;;10.68;100.00
37848;BME280;23688;33.130;-117.188;2024-02-14T06:44:00;99796.13;;;10.69;100.00
37848;BME280;23688;33.130;-117.188;2024-02-14T06:46:26;99802.41;;;10.75;100.00
37848;BME280;23688;33.130;-117.188;2024-02-14T06:48:53;99807.72;;;10.78;100.00
37848;BME280;23688;33.130;-117.188;2024-02-14T06:51:22;99801.59;;;10.76;100.00
37848;BME280;23688;33.130;-117.188;2024-02-14T06:53:51;99804.25;;;10.77;100.00
37848;BME280;23688;33.130;-117.188;2024-02-14T06:56:18;99804.41;;;10.80;100.00
37848;BME280;23688;33.130;-117.188;2024-02-14T06:58:44;99801.81;;;10.80;100.00
37848;BME280;23688;33.130;-117.188;2024-02-14T07:01:12;99799.22;;;10.80;100.00
37848;BME280;23688;33.130;-117.188;2024-02-14T07:03:41;99801.94;;;10.83;100.00
37848;BME280;23688;33.130;-117.188;2024-02-14T07:06:07;99798.47;;;10.83;100.00
37848;BME280;23688;33.130;-117.188;2024-02-14T07:08:33;99796.66;;;10.82;100.00
37848;BME280;23688;33.130;-117.188;2024-02-14T07:11:00;99792.31;;;10.81;100.00
37848;BME280;23688;33.130;-117.188;2024-02-14T07:13:26;99795.66;;;10.78;100.00
37848;BME280;23688;33.130;-117.188;2024-02-14T07:15:52;99790.47;;;10.78;100.00
37848;BME280;23688;33.130;-117.188;2024-02-14T07:18:19;99778.91;;;10.71;100.00
37848;BME280;23688;33.130;-117.188;2024-02-14T07:20:45;99793.06;;;10.78;100.00
37848;BME280;23688;33.130;-117.188;2024-02-14T07:23:12;99777.25;;;10.74;100.00
37848;BME280;23688;33.130;-117.188;2024-02-14T07:25:38;99792.00;;;10.75;100.00
37848;BME280;23688;33.130;-117.188;2024-02-14T07:28:05;99776.97;;;10.67;100.00
37848;BME280;23688;33.130;-117.188;2024-02-14T07:30:31;99782.31;;;10.70;100.00
37848;BME280;23688;33.130;-117.188;2024-02-14T07:32:57;99786.56;;;10.68;100.00
37848;BME280;23688;33.130;-117.188;2024-02-14T07:35:24;99790.78;;;10.66;100.00
37848;BME280;23688;33.130;-117.188;2024-02-14T07:37:51;99765.91;;;10.52;100.00
37848;BME280;23688;33.130;-117.188;2024-02-14T07:40:18;99786.00;;;10.56;100.00
37848;BME280;23688;33.130;-117.188;2024-02-14T07:42:44;99798.28;;;10.60;100.00
37848;BME280;23688;33.130;-117.188;2024-02-14T07:45:10;99800.63;;;10.54;100.00
37848;BME280;23688;33.130;-117.188;2024-02-14T07:47:37;99798.81;;;10.53;100.00
37848;BME280;23688;33.130;-117.188;2024-02-14T07:50:03;99807.44;;;10.52;100.00
37848;BME280;23688;33.130;-117.188;2024-02-14T07:52:30;99800.31;;;10.48;100.00
37848;BME280;23688;33.130;-117.188;2024-02-14T07:54:57;99797.59;;;10.45;100.00
37848;BME280;23688;33.130;-117.188;2024-02-14T07:57:24;99785.66;;;10.31;100.00
37848;BME280;23688;33.130;-117.188;2024-02-14T07:59:51;99782.31;;;10.15;100.00
37848;BME280;23688;33.130;-117.188;2024-02-14T08:02:19;99798.84;;;10.17;100.00
37848;BME280;23688;33.130;-117.188;2024-02-14T08:04:45;99799.59;;;10.15;100.00
37848;BME280;23688;33.130;-117.188;2024-02-14T08:07:11;99783.50;;;10.04;100.00
37848;BME280;23688;33.130;-117.188;2024-02-14T08:09:38;99802.78;;;10.09;100.00
37848;BME280;23688;33.130;-117.188;2024-02-14T08:12:05;99807.00;;;10.07;100.00
37848;BME280;23688;33.130;-117.188;2024-02-14T08:14:32;99799.94;;;10.04;100.00
37848;BME280;23688;33.130;-117.188;2024-02-14T08:16:58;99806.78;;;10.02;100.00
37848;BME280;23688;33.130;-117.188;2024-02-14T08:19:24;99788.41;;;9.98;100.00
37848;BME280;23688;33.130;-117.188;2024-02-14T08:21:51;99791.16;;;10.01;100.00
37848;BME280;23688;33.130;-117.188;2024-02-14T08:24:17;99793.28;;;9.92;100.00
37848;BME280;23688;33.130;-117.188;2024-02-14T08:26:43;99794.25;;;9.94;100.00
37848;BME280;23688;33.130;-117.188;2024-02-14T08:29:10;99789.72;;;9.90;100.00
37848;BME280;23688;33.130;-117.188;2024-02-14T08:31:37;99795.50;;;9.84;100.00
37848;BME280;23688;33.130;-117.188;2024-02-14T08:34:03;99796.91;;;9.77;100.00
37848;BME280;23688;33.130;-117.188;2024-02-14T08:36:30;99802.09;;;9.77;100.00
37848;BME280;23688;33.130;-117.188;2024-02-14T08:38:56;99797.28;;;9.67;100.00
37848;BME280;23688;33.130;-117.188;2024-02-14T08:41:22;99806.09;;;9.71;100.00
37848;BME280;23688;33.130;-117.188;2024-02-14T08:43:51;99800.84;;;9.69;100.00
37848;BME280;23688;33.130;-117.188;2024-02-14T08:46:18;99798.09;;;9.66;100.00
37848;BME280;23688;33.130;-117.188;2024-02-14T08:48:44;99799.94;;;9.69;100.00
37848;BME280;23688;33.130;-117.188;2024-02-14T08:51:15;99803.28;;;9.66;100.00
37848;BME280;23688;33.130;-117.188;2024-02-14T08:53:41;99796.16;;;9.62;100.00
37848;BME280;23688;33.130;-117.188;2024-02-14T08:56:09;99799.50;;;9.59;100.00
37848;BME280;23688;33.130;-117.188;2024-02-14T08:58:36;99802.09;;;9.59;100.00
37848;BME280;23688;33.130;-117.188;2024-02-14T09:01:02;99796.81;;;9.58;100.00
37848;BME280;23688;33.130;-117.188;2024-02-14T09:03:29;99797.63;;;9.57;100.00
37848;BME280;23688;33.130;-117.188;2024-02-14T09:05:57;99794.06;;;9.55;100.00
37848;BME280;23688;33.130;-117.188;2024-02-14T09:08:25;99801.75;;;9.53;100.00
37848;BME280;23688;33.130;-117.188;2024-02-14T09:10:51;99790.22;;;9.47;100.00
37848;BME280;23688;33.130;-117.188;2024-02-14T09:13:17;99792.81;;;9.47;100.00
37848;BME280;23688;33.130;-117.188;2024-02-14T09:15:47;99798.72;;;9.44;100.00
37848;BME280;23688;33.130;-117.188;2024-02-14T09:18:15;99773.81;;;9.30;100.00
37848;BME280;23688;33.130;-117.188;2024-02-14T09:20:44;99797.38;;;9.34;100.00
37848;BME280;23688;33.130;-117.188;2024-02-14T09:23:12;99788.47;;;9.29;100.00
37848;BME280;23688;33.130;-117.188;2024-02-14T09:25:45;99780.38;;;9.23;100.00
37848;BME280;23688;33.130;-117.188;2024-02-14T09:28:13;99783.94;;;9.25;100.00
37848;BME280;23688;33.130;-117.188;2024-02-14T09:30:40;99767.03;;;9.15;100.00
37848;BME280;23688;33.130;-117.188;2024-02-14T09:33:06;99787.66;;;9.30;100.00
37848;BME280;23688;33.130;-117.188;2024-02-14T09:35:32;99780.38;;;9.23;100.00
37848;BME280;23688;33.130;-117.188;2024-02-14T09:37:59;99776.16;;;9.25;100.00
37848;BME280;23688;33.130;-117.188;2024-02-14T09:40:25;99792.69;;;9.27;100.00
37848;BME280;23688;33.130;-117.188;2024-02-14T09:42:56;99795.81;;;9.21;100.00
37848;BME280;23688;33.130;-117.188;2024-02-14T09:45:27;99792.31;;;9.19;100.00
37848;BME280;23688;33.130;-117.188;2024-02-14T09:47:54;99795.63;;;9.17;100.00
37848;BME280;23688;33.130;-117.188;2024-02-14T09:50:21;99793.09;;;9.18;100.00
37848;BME280;23688;33.130;-117.188;2024-02-14T09:52:50;99786.88;;;9.15;100.00
37848;BME280;23688;33.130;-117.188;2024-02-14T09:55:19;99786.88;;;9.15;100.00
37848;BME280;23688;33.130;-117.188;2024-02-14T09:57:47;99786.94;;;9.16;100.00
37848;BME280;23688;33.130;-117.188;2024-02-14T10:00:15;99789.38;;;9.13;100.00
37848;BME280;23688;33.130;-117.188;2024-02-14T10:02:41;99786.41;;;9.06;100.00
37848;BME280;23688;33.130;-117.188;2024-02-14T10:05:08;99792.16;;;9.00;100.00
37848;BME280;23688;33.130;-117.188;2024-02-14T10:07:43;99794.81;;;9.02;100.00
37848;BME280;23688;33.130;-117.188;2024-02-14T10:10:10;99796.38;;;8.98;100.00
37848;BME280;23688;33.130;-117.188;2024-02-14T10:12:37;99789.97;;;8.91;100.00
37848;BME280;23688;33.130;-117.188;2024-02-14T10:15:05;99795.28;;;8.94;100.00
37848;BME280;23688;33.130;-117.188;2024-02-14T10:17:33;99808.34;;;8.96;100.00
37848;BME280;23688;33.130;-117.188;2024-02-14T10:20:01;99795.63;;;8.84;100.00
37848;BME280;23688;33.130;-117.188;2024-02-14T10:22:37;99813.34;;;8.93;100.00
37848;BME280;23688;33.130;-117.188;2024-02-14T10:25:05;99796.44;;;8.83;100.00
37848;BME280;23688;33.130;-117.188;2024-02-14T10:27:38;99811.31;;;8.87;100.00
37848;BME280;23688;33.130;-117.188;2024-02-14T10:30:09;99816.34;;;8.84;100.00
37848;BME280;23688;33.130;-117.188;2024-02-14T10:32:42;99807.34;;;8.77;100.00
37848;BME280;23688;33.130;-117.188;2024-02-14T10:35:14;99813.59;;;8.81;100.00
37848;BME280;23688;33.130;-117.188;2024-02-14T10:37:41;99821.34;;;8.81;100.00
37848;BME280;23688;33.130;-117.188;2024-02-14T10:40:08;99828.06;;;8.77;100.00
37848;BME280;23688;33.130;-117.188;2024-02-14T10:42:35;99811.38;;;8.72;100.00
37848;BME280;23688;33.130;-117.188;2024-02-14T10:45:02;99835.03;;;8.78;100.00
37848;BME280;23688;33.130;-117.188;2024-02-14T10:47:34;99818.44;;;8.75;100.00
37848;BME280;23688;33.130;-117.188;2024-02-14T10:50:03;99825.16;;;8.71;100.00
37848;BME280;23688;33.130;-117.188;2024-02-14T10:52:36;99833.66;;;8.69;100.00
37848;BME280;23688;33.130;-117.188;2024-02-14T10:55:06;99825.78;;;8.67;100.00
37848;BME280;23688;33.130;-117.188;2024-02-14T10:57:35;99829.09;;;8.65;100.00
37848;BME280;23688;33.130;-117.188;2024-02-14T11:00:06;99815.84;;;8.59;100.00
37848;BME280;23688;33.130;-117.188;2024-02-14T11:02:33;99815.66;;;8.55;100.00
37848;BME280;23688;33.130;-117.188;2024-02-14T11:05:00;99829.72;;;8.61;100.00
37848;BME280;23688;33.130;-117.188;2024-02-14T11:07:29;99823.25;;;8.52;100.00
37848;BME280;23688;33.130;-117.188;2024-02-14T11:10:07;99829.50;;;8.56;100.00
37848;BME280;23688;33.130;-117.188;2024-02-14T11:12:36;99816.84;;;8.46;100.00
37848;BME280;23688;33.130;-117.188;2024-02-14T11:15:25;99841.53;;;8.55;100.00
37848;BME280;23688;33.130;-117.188;2024-02-14T11:17:51;99829.25;;;8.51;100.00
37848;BME280;23688;33.130;-117.188;2024-02-14T11:20:36;99845.75;;;8.53;100.00
37848;BME280;23688;33.130;-117.188;2024-02-14T11:23:04;99831.50;;;8.45;100.00
37848;BME280;23688;33.130;-117.188;2024-02-14T11:25:34;99838.69;;;8.51;100.00
37848;BME280;23688;33.130;-117.188;2024-02-14T11:28:13;99835.94;;;8.48;100.00
37848;BME280;23688;33.130;-117.188;2024-02-14T11:30:41;99836.81;;;8.48;100.00
37848;BME280;23688;33.130;-117.188;2024-02-14T11:33:16;99849.75;;;8.48;100.00
37848;BME280;23688;33.130;-117.188;2024-02-14T11:35:47;99842.41;;;8.40;100.00
37848;BME280;23688;33.130;-117.188;2024-02-14T11:38:15;99852.19;;;8.45;100.00
37848;BME280;23688;33.130;-117.188;2024-02-14T11:40:42;99845.16;;;8.43;100.00
37848;BME280;23688;33.130;-117.188;2024-02-14T11:43:13;99842.47;;;8.41;100.00
37848;BME280;23688;33.130;-117.188;2024-02-14T11:45:41;99847.56;;;8.40;100.00
37848;BME280;23688;33.130;-117.188;2024-02-14T11:48:14;99839.81;;;8.40;100.00
37848;BME280;23688;33.130;-117.188;2024-02-14T11:50:42;99842.47;;;8.41;100.00
37848;BME280;23688;33.130;-117.188;2024-02-14T11:53:13;99821.31;;;8.33;100.00
37848;BME280;23688;33.130;-117.188;2024-02-14T11:55:42;99829.34;;;8.38;100.00
37848;BME280;23688;33.130;-117.188;2024-02-14T11:58:10;99834.72;;;8.41;100.00
37848;BME280;23688;33.130;-117.188;2024-02-14T12:00:47;99834.44;;;8.36;100.00
37848;BME280;23688;33.130;-117.188;2024-02-14T12:03:24;99844.59;;;8.33;100.00
37848;BME280;23688;33.130;-117.188;2024-02-14T12:05:54;99842.66;;;8.29;100.00
37848;BME280;23688;33.130;-117.188;2024-02-14T12:08:22;99849.44;;;8.27;100.00
37848;BME280;23688;33.130;-117.188;2024-02-14T12:10:49;99839.81;;;8.25;100.00
37848;BME280;23688;33.130;-117.188;2024-02-14T12:13:17;99854.53;;;8.26;100.00
37848;BME280;23688;33.130;-117.188;2024-02-14T12:15:48;99846.75;;;8.26;100.00
37848;BME280;23688;33.130;-117.188;2024-02-14T12:18:17;99856.38;;;8.28;100.00
37848;BME280;23688;33.130;-117.188;2024-02-14T12:20:46;99851.06;;;8.25;100.00
37848;BME280;23688;33.130;-117.188;2024-02-14T12:23:18;99861.50;;;8.27;100.00
37848;BME280;23688;33.130;-117.188;2024-02-14T12:25:48;99870.22;;;8.29;100.00